sensor_id;sensor_type;location;lat;lon;timestamp;P1;durP1;ratioP1;P2;durP2;ratioP2
59442;SDS011;45247;47.466;19.004;2023-02-21T00:02:17;13.27;;;8.02;;
59442;SDS011;45247;47.466;19.004;2023-02-21T00:05:02;13.68;;;8.77;;
59442;SDS011;45247;47.466;19.004;2023-02-21T00:07:48;12.95;;;8.52;;
59442;SDS011;45247;47.466;19.004;2023-02-21T00:10:34;10.52;;;7.60;;
59442;SDS011;45247;47.466;19.004;2023-02-21T00:13:21;11.70;;;8.05;;
59442;SDS011;45247;47.466;19.004;2023-02-21T00:16:07;14.48;;;8.80;;
59442;SDS011;45247;47.466;19.004;2023-02-21T00:18:53;11.18;;;7.88;;
59442;SDS011;45247;47.466;19.004;2023-02-21T00:21:38;11.68;;;8.05;;
59442;SDS011;45247;47.466;19.004;2023-02-21T00:24:24;11.30;;;8.10;;
59442;SDS011;45247;47.466;19.004;2023-02-21T00:27:09;10.85;;;8.30;;
59442;SDS011;45247;47.466;19.004;2023-02-21T00:29:56;11.27;;;8.10;;
59442;SDS011;45247;47.466;19.004;2023-02-21T00:32:42;9.55;;;6.97;;
59442;SDS011;45247;47.466;19.004;2023-02-21T00:35:29;11.70;;;7.75;;
59442;SDS011;45247;47.466;19.004;2023-02-21T00:38:15;11.93;;;7.53;;
59442;SDS011;45247;47.466;19.004;2023-02-21T00:41:00;15.05;;;7.78;;
59442;SDS011;45247;47.466;19.004;2023-02-21T00:43:46;9.98;;;6.75;;
59442;SDS011;45247;47.466;19.004;2023-02-21T00:46:33;12.55;;;7.13;;
59442;SDS011;45247;47.466;19.004;2023-02-21T00:49:19;11.45;;;6.82;;
59442;SDS011;45247;47.466;19.004;2023-02-21T00:52:04;11.60;;;6.68;;
59442;SDS011;45247;47.466;19.004;2023-02-21T00:54:50;9.23;;;5.93;;
59442;SDS011;45247;47.466;19.004;2023-02-21T00:57:36;13.48;;;6.57;;
59442;SDS011;45247;47.466;19.004;2023-02-21T01:00:22;11.93;;;6.82;;
59442;SDS011;45247;47.466;19.004;2023-02-21T01:03:10;10.43;;;6.30;;
59442;SDS011;45247;47.466;19.004;2023-02-21T01:05:56;8.48;;;5.88;;
59442;SDS011;45247;47.466;19.004;2023-02-21T01:08:42;8.13;;;5.32;;
59442;SDS011;45247;47.466;19.004;2023-02-21T01:11:29;9.65;;;6.88;;
59442;SDS011;45247;47.466;19.004;2023-02-21T01:14:15;8.73;;;5.90;;
59442;SDS011;45247;47.466;19.004;2023-02-21T01:17:00;7.45;;;5.32;;
59442;SDS011;45247;47.466;19.004;2023-02-21T01:19:47;7.72;;;4.65;;
59442;SDS011;45247;47.466;19.004;2023-02-21T01:22:32;9.05;;;5.03;;
59442;SDS011;45247;47.466;19.004;2023-02-21T01:25:18;9.32;;;5.00;;
59442;SDS011;45247;47.466;19.004;2023-02-21T01:28:04;9.55;;;5.63;;
59442;SDS011;45247;47.466;19.004;2023-02-21T01:30:49;6.60;;;4.32;;
59442;SDS011;45247;47.466;19.004;2023-02-21T01:33:36;7.75;;;5.35;;
59442;SDS011;45247;47.466;19.004;2023-02-21T01:36:24;8.23;;;5.22;;
59442;SDS011;45247;47.466;19.004;2023-02-21T01:39:10;9.68;;;5.88;;
59442;SDS011;45247;47.466;19.004;2023-02-21T01:41:56;8.32;;;5.63;;
59442;SDS011;45247;47.466;19.004;2023-02-21T01:44:43;7.53;;;5.10;;
59442;SDS011;45247;47.466;19.004;2023-02-21T01:47:30;10.63;;;5.93;;
59442;SDS011;45247;47.466;19.004;2023-02-21T01:50:18;8.68;;;5.68;;
59442;SDS011;45247;47.466;19.004;2023-02-21T01:53:08;9.18;;;5.43;;
59442;SDS011;45247;47.466;19.004;2023-02-21T01:55:57;8.55;;;5.53;;
59442;SDS011;45247;47.466;19.004;2023-02-21T01:58:44;7.63;;;5.40;;
59442;SDS011;45247;47.466;19.004;2023-02-21T02:01:34;8.88;;;6.00;;
59442;SDS011;45247;47.466;19.004;2023-02-21T02:04:24;9.45;;;6.32;;
59442;SDS011;45247;47.466;19.004;2023-02-21T02:07:10;8.45;;;5.70;;
59442;SDS011;45247;47.466;19.004;2023-02-21T02:09:57;8.98;;;5.20;;
59442;SDS011;45247;47.466;19.004;2023-02-21T02:12:49;8.90;;;5.72;;
59442;SDS011;45247;47.466;19.004;2023-02-21T02:15:33;10.23;;;5.78;;
59442;SDS011;45247;47.466;19.004;2023-02-21T02:21:36;7.63;;;5.32;;
59442;SDS011;45247;47.466;19.004;2023-02-21T02:24:27;8.02;;;5.68;;
59442;SDS011;45247;47.466;19.004;2023-02-21T02:27:24;8.48;;;5.30;;
59442;SDS011;45247;47.466;19.004;2023-02-21T02:33:43;8.75;;;5.07;;
59442;SDS011;45247;47.466;19.004;2023-02-21T02:36:26;6.50;;;4.68;;
59442;SDS011;45247;47.466;19.004;2023-02-21T02:39:01;7.80;;;4.72;;
59442;SDS011;45247;47.466;19.004;2023-02-21T02:41:52;6.43;;;4.45;;
59442;SDS011;45247;47.466;19.004;2023-02-21T02:44:33;12.55;;;5.38;;
59442;SDS011;45247;47.466;19.004;2023-02-21T02:47:06;8.63;;;4.95;;
59442;SDS011;45247;47.466;19.004;2023-02-21T02:49:37;8.20;;;5.20;;
59442;SDS011;45247;47.466;19.004;2023-02-21T02:52:10;7.28;;;4.80;;
59442;SDS011;45247;47.466;19.004;2023-02-21T02:54:38;8.35;;;5.18;;
59442;SDS011;45247;47.466;19.004;2023-02-21T02:57:06;6.55;;;4.05;;
59442;SDS011;45247;47.466;19.004;2023-02-21T02:59:39;6.55;;;4.30;;
59442;SDS011;45247;47.466;19.004;2023-02-21T03:02:16;6.63;;;4.22;;
59442;SDS011;45247;47.466;19.004;2023-02-21T03:05:05;5.28;;;4.00;;
59442;SDS011;45247;47.466;19.004;2023-02-21T03:07:46;6.65;;;4.60;;
59442;SDS011;45247;47.466;19.004;2023-02-21T03:10:27;6.38;;;4.70;;
59442;SDS011;45247;47.466;19.004;2023-02-21T03:13:06;6.55;;;4.07;;
59442;SDS011;45247;47.466;19.004;2023-02-21T03:15:44;5.93;;;4.05;;
59442;SDS011;45247;47.466;19.004;2023-02-21T03:18:17;5.68;;;4.00;;
59442;SDS011;45247;47.466;19.004;2023-02-21T03:20:52;6.40;;;3.97;;
59442;SDS011;45247;47.466;19.004;2023-02-21T03:23:25;7.78;;;4.00;;
59442;SDS011;45247;47.466;19.004;2023-02-21T03:25:55;5.13;;;3.63;;
59442;SDS011;45247;47.466;19.004;2023-02-21T03:28:26;6.00;;;3.10;;
59442;SDS011;45247;47.466;19.004;2023-02-21T03:30:56;4.32;;;2.80;;
59442;SDS011;45247;47.466;19.004;2023-02-21T03:33:26;6.75;;;3.50;;
59442;SDS011;45247;47.466;19.004;2023-02-21T03:35:55;5.20;;;2.90;;
59442;SDS011;45247;47.466;19.004;2023-02-21T03:38:28;3.08;;;2.08;;
59442;SDS011;45247;47.466;19.004;2023-02-21T03:40:56;3.45;;;2.38;;
59442;SDS011;45247;47.466;19.004;2023-02-21T03:43:25;3.72;;;2.00;;
59442;SDS011;45247;47.466;19.004;2023-02-21T03:45:53;5.38;;;2.05;;
59442;SDS011;45247;47.466;19.004;2023-02-21T03:48:21;2.97;;;1.80;;
59442;SDS011;45247;47.466;19.004;2023-02-21T03:50:57;5.25;;;2.05;;
59442;SDS011;45247;47.466;19.004;2023-02-21T03:53:25;5.05;;;1.90;;
59442;SDS011;45247;47.466;19.004;2023-02-21T03:55:55;3.30;;;1.60;;
59442;SDS011;45247;47.466;19.004;2023-02-21T03:58:23;3.28;;;1.92;;
59442;SDS011;45247;47.466;19.004;2023-02-21T04:00:52;2.58;;;1.40;;
59442;SDS011;45247;47.466;19.004;2023-02-21T04:03:20;3.90;;;1.65;;
59442;SDS011;45247;47.466;19.004;2023-02-21T04:05:48;2.42;;;1.48;;
59442;SDS011;45247;47.466;19.004;2023-02-21T04:08:17;2.53;;;1.50;;
59442;SDS011;45247;47.466;19.004;2023-02-21T04:10:45;3.88;;;1.77;;
59442;SDS011;45247;47.466;19.004;2023-02-21T04:13:19;7.57;;;1.60;;
59442;SDS011;45247;47.466;19.004;2023-02-21T04:15:49;2.75;;;1.35;;
59442;SDS011;45247;47.466;19.004;2023-02-21T04:18:17;2.33;;;1.50;;
59442;SDS011;45247;47.466;19.004;2023-02-21T04:20:45;3.03;;;1.52;;
59442;SDS011;45247;47.466;19.004;2023-02-21T04:23:15;1.73;;;1.05;;
59442;SDS011;45247;47.466;19.004;2023-02-21T04:25:45;3.78;;;1.50;;
59442;SDS011;45247;47.466;19.004;2023-02-21T04:28:14;2.40;;;1.10;;
59442;SDS011;45247;47.466;19.004;2023-02-21T04:30:43;2.53;;;1.30;;
59442;SDS011;45247;47.466;19.004;2023-02-21T04:33:12;3.55;;;1.55;;
59442;SDS011;45247;47.466;19.004;2023-02-21T04:35:41;3.65;;;1.20;;
59442;SDS011;45247;47.466;19.004;2023-02-21T04:38:10;3.15;;;1.67;;
59442;SDS011;45247;47.466;19.004;2023-02-21T04:40:38;3.25;;;1.15;;
59442;SDS011;45247;47.466;19.004;2023-02-21T04:43:06;4.72;;;1.20;;
59442;SDS011;45247;47.466;19.004;2023-02-21T04:45:34;4.05;;;1.80;;
59442;SDS011;45247;47.466;19.004;2023-02-21T04:48:04;2.88;;;1.40;;
59442;SDS011;45247;47.466;19.004;2023-02-21T04:50:33;4.78;;;1.35;;
59442;SDS011;45247;47.466;19.004;2023-02-21T04:53:01;1.95;;;1.30;;
59442;SDS011;45247;47.466;19.004;2023-02-21T04:55:29;3.88;;;1.20;;
59442;SDS011;45247;47.466;19.004;2023-02-21T04:57:58;1.58;;;1.10;;
59442;SDS011;45247;47.466;19.004;2023-02-21T05:00:26;5.82;;;1.48;;
59442;SDS011;45247;47.466;19.004;2023-02-21T05:02:54;2.60;;;1.30;;
59442;SDS011;45247;47.466;19.004;2023-02-21T05:05:24;5.70;;;1.15;;
59442;SDS011;45247;47.466;19.004;2023-02-21T05:07:52;3.25;;;1.27;;
59442;SDS011;45247;47.466;19.004;2023-02-21T05:10:21;3.88;;;1.50;;
59442;SDS011;45247;47.466;19.004;2023-02-21T05:13:02;3.25;;;1.10;;
59442;SDS011;45247;47.466;19.004;2023-02-21T05:15:30;2.20;;;1.10;;
59442;SDS011;45247;47.466;19.004;2023-02-21T05:17:58;2.00;;;1.20;;
59442;SDS011;45247;47.466;19.004;2023-02-21T05:20:28;2.10;;;1.20;;
59442;SDS011;45247;47.466;19.004;2023-02-21T05:22:56;2.13;;;1.10;;
59442;SDS011;45247;47.466;19.004;2023-02-21T05:25:37;2.35;;;1.30;;
59442;SDS011;45247;47.466;19.004;2023-02-21T05:28:05;3.22;;;1.30;;
59442;SDS011;45247;47.466;19.004;2023-02-21T05:30:33;1.58;;;1.13;;
59442;SDS011;45247;47.466;19.004;2023-02-21T05:33:02;2.05;;;1.20;;
59442;SDS011;45247;47.466;19.004;2023-02-21T05:35:31;2.10;;;1.20;;
59442;SDS011;45247;47.466;19.004;2023-02-21T05:38:00;4.10;;;1.30;;
59442;SDS011;45247;47.466;19.004;2023-02-21T05:40:28;2.05;;;1.10;;
59442;SDS011;45247;47.466;19.004;2023-02-21T05:42:57;2.40;;;1.33;;
59442;SDS011;45247;47.466;19.004;2023-02-21T05:45:25;4.25;;;1.30;;
59442;SDS011;45247;47.466;19.004;2023-02-21T05:47:54;3.05;;;1.27;;
59442;SDS011;45247;47.466;19.004;2023-02-21T05:50:25;5.20;;;1.48;;
59442;SDS011;45247;47.466;19.004;2023-02-21T05:52:56;1.83;;;1.10;;
59442;SDS011;45247;47.466;19.004;2023-02-21T05:55:25;1.58;;;1.05;;
59442;SDS011;45247;47.466;19.004;2023-02-21T05:57:53;3.42;;;1.52;;
59442;SDS011;45247;47.466;19.004;2023-02-21T06:00:22;3.20;;;1.30;;
59442;SDS011;45247;47.466;19.004;2023-02-21T06:02:53;2.83;;;1.20;;
59442;SDS011;45247;47.466;19.004;2023-02-21T06:05:22;4.45;;;1.17;;
59442;SDS011;45247;47.466;19.004;2023-02-21T06:07:51;2.53;;;1.30;;
59442;SDS011;45247;47.466;19.004;2023-02-21T06:10:21;2.63;;;1.25;;
59442;SDS011;45247;47.466;19.004;2023-02-21T06:12:49;2.60;;;1.25;;
59442;SDS011;45247;47.466;19.004;2023-02-21T06:15:17;2.70;;;1.23;;
59442;SDS011;45247;47.466;19.004;2023-02-21T06:17:46;2.40;;;1.08;;
59442;SDS011;45247;47.466;19.004;2023-02-21T06:20:14;5.07;;;2.00;;
59442;SDS011;45247;47.466;19.004;2023-02-21T06:22:43;4.30;;;1.60;;
59442;SDS011;45247;47.466;19.004;2023-02-21T06:25:13;2.88;;;1.67;;
59442;SDS011;45247;47.466;19.004;2023-02-21T06:27:42;2.83;;;1.40;;
59442;SDS011;45247;47.466;19.004;2023-02-21T06:30:11;2.70;;;1.27;;
59442;SDS011;45247;47.466;19.004;2023-02-21T06:32:40;3.88;;;1.20;;
59442;SDS011;45247;47.466;19.004;2023-02-21T06:35:09;2.70;;;1.30;;
59442;SDS011;45247;47.466;19.004;2023-02-21T06:37:37;1.73;;;1.15;;
59442;SDS011;45247;47.466;19.004;2023-02-21T06:40:05;2.38;;;1.17;;
59442;SDS011;45247;47.466;19.004;2023-02-21T06:42:35;3.03;;;1.30;;
59442;SDS011;45247;47.466;19.004;2023-02-21T06:45:04;4.95;;;1.40;;
59442;SDS011;45247;47.466;19.004;2023-02-21T06:47:33;3.28;;;1.10;;
59442;SDS011;45247;47.466;19.004;2023-02-21T06:50:01;2.75;;;1.48;;
59442;SDS011;45247;47.466;19.004;2023-02-21T06:52:30;2.40;;;1.27;;
59442;SDS011;45247;47.466;19.004;2023-02-21T06:54:59;3.88;;;1.60;;
59442;SDS011;45247;47.466;19.004;2023-02-21T06:57:28;3.03;;;1.20;;
59442;SDS011;45247;47.466;19.004;2023-02-21T06:59:56;7.53;;;1.45;;
59442;SDS011;45247;47.466;19.004;2023-02-21T07:02:26;4.03;;;1.80;;
59442;SDS011;45247;47.466;19.004;2023-02-21T07:04:54;4.78;;;1.58;;
59442;SDS011;45247;47.466;19.004;2023-02-21T07:07:22;5.07;;;1.40;;
59442;SDS011;45247;47.466;19.004;2023-02-21T07:09:50;2.50;;;1.35;;
59442;SDS011;45247;47.466;19.004;2023-02-21T07:12:19;4.68;;;1.50;;
59442;SDS011;45247;47.466;19.004;2023-02-21T07:14:47;2.47;;;1.25;;
59442;SDS011;45247;47.466;19.004;2023-02-21T07:17:15;4.50;;;1.50;;
59442;SDS011;45247;47.466;19.004;2023-02-21T07:19:45;4.13;;;1.70;;
59442;SDS011;45247;47.466;19.004;2023-02-21T07:22:13;2.38;;;1.30;;
59442;SDS011;45247;47.466;19.004;2023-02-21T07:24:41;4.97;;;1.83;;
59442;SDS011;45247;47.466;19.004;2023-02-21T07:27:09;4.88;;;1.50;;
59442;SDS011;45247;47.466;19.004;2023-02-21T07:29:38;2.78;;;1.40;;
59442;SDS011;45247;47.466;19.004;2023-02-21T07:32:06;2.13;;;1.13;;
59442;SDS011;45247;47.466;19.004;2023-02-21T07:34:35;1.95;;;1.20;;
59442;SDS011;45247;47.466;19.004;2023-02-21T07:37:04;2.65;;;1.33;;
59442;SDS011;45247;47.466;19.004;2023-02-21T07:39:32;4.55;;;1.30;;
59442;SDS011;45247;47.466;19.004;2023-02-21T07:42:01;3.28;;;1.70;;
59442;SDS011;45247;47.466;19.004;2023-02-21T07:44:30;5.97;;;1.40;;
59442;SDS011;45247;47.466;19.004;2023-02-21T07:46:58;3.72;;;1.17;;
59442;SDS011;45247;47.466;19.004;2023-02-21T07:49:26;2.38;;;1.40;;
59442;SDS011;45247;47.466;19.004;2023-02-21T07:51:55;5.13;;;1.40;;
59442;SDS011;45247;47.466;19.004;2023-02-21T07:54:25;1.83;;;1.23;;
59442;SDS011;45247;47.466;19.004;2023-02-21T07:56:53;5.70;;;1.35;;
59442;SDS011;45247;47.466;19.004;2023-02-21T07:59:22;1.98;;;1.05;;
59442;SDS011;45247;47.466;19.004;2023-02-21T08:01:51;3.58;;;1.52;;
59442;SDS011;45247;47.466;19.004;2023-02-21T08:04:19;7.32;;;1.70;;
59442;SDS011;45247;47.466;19.004;2023-02-21T08:06:49;2.50;;;1.40;;
59442;SDS011;45247;47.466;19.004;2023-02-21T08:09:17;2.00;;;1.10;;
59442;SDS011;45247;47.466;19.004;2023-02-21T08:11:47;4.05;;;1.55;;
59442;SDS011;45247;47.466;19.004;2023-02-21T08:14:15;6.25;;;1.60;;
59442;SDS011;45247;47.466;19.004;2023-02-21T08:16:43;20.38;;;2.72;;
59442;SDS011;45247;47.466;19.004;2023-02-21T08:19:12;3.47;;;1.38;;
59442;SDS011;45247;47.466;19.004;2023-02-21T08:21:43;5.15;;;1.75;;
59442;SDS011;45247;47.466;19.004;2023-02-21T08:24:12;2.38;;;1.35;;
59442;SDS011;45247;47.466;19.004;2023-02-21T08:26:41;5.75;;;1.30;;
59442;SDS011;45247;47.466;19.004;2023-02-21T08:29:12;2.83;;;1.40;;
59442;SDS011;45247;47.466;19.004;2023-02-21T08:31:43;5.18;;;1.70;;
59442;SDS011;45247;47.466;19.004;2023-02-21T08:34:12;3.72;;;1.60;;
59442;SDS011;45247;47.466;19.004;2023-02-21T08:36:41;1.98;;;1.20;;
59442;SDS011;45247;47.466;19.004;2023-02-21T08:39:10;2.55;;;1.30;;
59442;SDS011;45247;47.466;19.004;2023-02-21T08:41:41;2.63;;;1.40;;
59442;SDS011;45247;47.466;19.004;2023-02-21T08:44:13;17.80;;;3.75;;
59442;SDS011;45247;47.466;19.004;2023-02-21T08:46:42;4.13;;;1.50;;
59442;SDS011;45247;47.466;19.004;2023-02-21T08:49:14;2.70;;;1.33;;
59442;SDS011;45247;47.466;19.004;2023-02-21T08:51:43;11.27;;;2.35;;
59442;SDS011;45247;47.466;19.004;2023-02-21T08:54:11;11.43;;;2.42;;
59442;SDS011;45247;47.466;19.004;2023-02-21T08:56:39;26.95;;;3.70;;
59442;SDS011;45247;47.466;19.004;2023-02-21T08:59:08;17.42;;;4.38;;
59442;SDS011;45247;47.466;19.004;2023-02-21T09:01:37;20.05;;;2.72;;
59442;SDS011;45247;47.466;19.004;2023-02-21T09:04:06;15.18;;;3.20;;
59442;SDS011;45247;47.466;19.004;2023-02-21T09:06:34;87.00;;;9.82;;
59442;SDS011;45247;47.466;19.004;2023-02-21T09:09:02;50.67;;;4.13;;
59442;SDS011;45247;47.466;19.004;2023-02-21T09:11:31;20.45;;;4.07;;
59442;SDS011;45247;47.466;19.004;2023-02-21T09:13:59;52.03;;;5.65;;
59442;SDS011;45247;47.466;19.004;2023-02-21T09:16:31;29.65;;;4.68;;
59442;SDS011;45247;47.466;19.004;2023-02-21T09:19:01;28.65;;;4.70;;
59442;SDS011;45247;47.466;19.004;2023-02-21T09:21:32;27.65;;;3.83;;
59442;SDS011;45247;47.466;19.004;2023-02-21T09:24:01;5.15;;;1.77;;
59442;SDS011;45247;47.466;19.004;2023-02-21T09:26:31;28.23;;;2.85;;
59442;SDS011;45247;47.466;19.004;2023-02-21T09:28:59;7.53;;;2.10;;
59442;SDS011;45247;47.466;19.004;2023-02-21T09:31:27;37.75;;;5.07;;
59442;SDS011;45247;47.466;19.004;2023-02-21T09:33:55;21.60;;;4.40;;
59442;SDS011;45247;47.466;19.004;2023-02-21T09:36:25;4.63;;;1.40;;
59442;SDS011;45247;47.466;19.004;2023-02-21T09:38:54;20.02;;;2.17;;
59442;SDS011;45247;47.466;19.004;2023-02-21T09:41:25;17.42;;;2.53;;
59442;SDS011;45247;47.466;19.004;2023-02-21T09:43:53;8.38;;;2.72;;
59442;SDS011;45247;47.466;19.004;2023-02-21T09:46:24;11.35;;;2.20;;
59442;SDS011;45247;47.466;19.004;2023-02-21T09:48:59;4.18;;;1.52;;
59442;SDS011;45247;47.466;19.004;2023-02-21T09:51:30;3.40;;;1.40;;
59442;SDS011;45247;47.466;19.004;2023-02-21T09:54:02;2.42;;;1.40;;
59442;SDS011;45247;47.466;19.004;2023-02-21T09:56:32;14.13;;;2.53;;
59442;SDS011;45247;47.466;19.004;2023-02-21T09:59:02;6.30;;;1.73;;
59442;SDS011;45247;47.466;19.004;2023-02-21T10:01:39;26.52;;;3.25;;
59442;SDS011;45247;47.466;19.004;2023-02-21T10:04:25;2.53;;;1.45;;
59442;SDS011;45247;47.466;19.004;2023-02-21T10:07:06;26.17;;;2.58;;
59442;SDS011;45247;47.466;19.004;2023-02-21T10:09:41;11.50;;;2.55;;
59442;SDS011;45247;47.466;19.004;2023-02-21T10:12:17;2.75;;;1.40;;
59442;SDS011;45247;47.466;19.004;2023-02-21T10:14:58;2.25;;;1.30;;
59442;SDS011;45247;47.466;19.004;2023-02-21T10:17:40;5.72;;;1.58;;
59442;SDS011;45247;47.466;19.004;2023-02-21T10:20:15;17.58;;;2.83;;
59442;SDS011;45247;47.466;19.004;2023-02-21T10:22:50;18.92;;;2.78;;
59442;SDS011;45247;47.466;19.004;2023-02-21T10:25:21;1.83;;;1.08;;
59442;SDS011;45247;47.466;19.004;2023-02-21T10:27:54;2.38;;;1.27;;
59442;SDS011;45247;47.466;19.004;2023-02-21T10:30:26;8.18;;;1.95;;
59442;SDS011;45247;47.466;19.004;2023-02-21T10:33:01;5.47;;;1.60;;
59442;SDS011;45247;47.466;19.004;2023-02-21T10:35:32;3.50;;;1.35;;
59442;SDS011;45247;47.466;19.004;2023-02-21T10:38:02;3.13;;;1.80;;
59442;SDS011;45247;47.466;19.004;2023-02-21T10:43:05;10.10;;;2.22;;
59442;SDS011;45247;47.466;19.004;2023-02-21T10:45:38;2.95;;;1.27;;
59442;SDS011;45247;47.466;19.004;2023-02-21T10:48:12;2.17;;;1.20;;
59442;SDS011;45247;47.466;19.004;2023-02-21T10:50:43;3.97;;;1.50;;
59442;SDS011;45247;47.466;19.004;2023-02-21T10:53:26;2.65;;;1.30;;
59442;SDS011;45247;47.466;19.004;2023-02-21T10:56:06;3.70;;;1.27;;
59442;SDS011;45247;47.466;19.004;2023-02-21T10:58:51;2.60;;;1.02;;
59442;SDS011;45247;47.466;19.004;2023-02-21T11:01:29;2.10;;;1.30;;
59442;SDS011;45247;47.466;19.004;2023-02-21T11:04:00;1.70;;;1.15;;
59442;SDS011;45247;47.466;19.004;2023-02-21T11:06:33;3.33;;;1.10;;
59442;SDS011;45247;47.466;19.004;2023-02-21T11:12:05;3.22;;;1.30;;
59442;SDS011;45247;47.466;19.004;2023-02-21T11:14:45;2.47;;;1.20;;
59442;SDS011;45247;47.466;19.004;2023-02-21T11:17:32;3.22;;;1.20;;
59442;SDS011;45247;47.466;19.004;2023-02-21T11:20:02;3.80;;;1.40;;
59442;SDS011;45247;47.466;19.004;2023-02-21T11:22:43;2.90;;;1.55;;
59442;SDS011;45247;47.466;19.004;2023-02-21T11:25:17;1.73;;;1.23;;
59442;SDS011;45247;47.466;19.004;2023-02-21T11:27:57;2.30;;;1.40;;
59442;SDS011;45247;47.466;19.004;2023-02-21T11:30:27;5.20;;;1.75;;
59442;SDS011;45247;47.466;19.004;2023-02-21T11:32:58;2.15;;;1.27;;
59442;SDS011;45247;47.466;19.004;2023-02-21T11:35:28;23.60;;;3.72;;
59442;SDS011;45247;47.466;19.004;2023-02-21T11:37:59;21.17;;;3.90;;
59442;SDS011;45247;47.466;19.004;2023-02-21T11:40:33;4.13;;;1.70;;
59442;SDS011;45247;47.466;19.004;2023-02-21T11:43:18;3.67;;;1.83;;
59442;SDS011;45247;47.466;19.004;2023-02-21T11:45:58;22.73;;;2.88;;
59442;SDS011;45247;47.466;19.004;2023-02-21T11:48:32;16.08;;;2.38;;
59442;SDS011;45247;47.466;19.004;2023-02-21T11:51:12;4.78;;;1.80;;
59442;SDS011;45247;47.466;19.004;2023-02-21T11:53:51;29.10;;;4.10;;
59442;SDS011;45247;47.466;19.004;2023-02-21T11:56:25;50.22;;;5.28;;
59442;SDS011;45247;47.466;19.004;2023-02-21T11:59:04;15.50;;;3.05;;
59442;SDS011;45247;47.466;19.004;2023-02-21T12:01:41;6.53;;;2.67;;
59442;SDS011;45247;47.466;19.004;2023-02-21T12:04:18;16.98;;;3.58;;
59442;SDS011;45247;47.466;19.004;2023-02-21T12:06:59;3.78;;;1.80;;
59442;SDS011;45247;47.466;19.004;2023-02-21T12:09:38;2.92;;;1.80;;
59442;SDS011;45247;47.466;19.004;2023-02-21T12:12:23;13.93;;;3.05;;
59442;SDS011;45247;47.466;19.004;2023-02-21T12:15:00;8.98;;;3.13;;
59442;SDS011;45247;47.466;19.004;2023-02-21T12:17:39;11.48;;;2.92;;
59442;SDS011;45247;47.466;19.004;2023-02-21T12:20:31;5.38;;;1.80;;
59442;SDS011;45247;47.466;19.004;2023-02-21T12:23:15;19.23;;;3.78;;
59442;SDS011;45247;47.466;19.004;2023-02-21T12:25:56;6.70;;;2.00;;
59442;SDS011;45247;47.466;19.004;2023-02-21T12:28:39;20.92;;;2.95;;
59442;SDS011;45247;47.466;19.004;2023-02-21T12:31:23;9.43;;;2.03;;
59442;SDS011;45247;47.466;19.004;2023-02-21T12:34:01;9.85;;;2.10;;
59442;SDS011;45247;47.466;19.004;2023-02-21T12:36:41;8.50;;;2.45;;
59442;SDS011;45247;47.466;19.004;2023-02-21T12:39:22;10.95;;;3.13;;
59442;SDS011;45247;47.466;19.004;2023-02-21T12:42:09;11.82;;;2.75;;
59442;SDS011;45247;47.466;19.004;2023-02-21T12:44:56;10.55;;;2.78;;
59442;SDS011;45247;47.466;19.004;2023-02-21T12:47:35;3.00;;;1.60;;
59442;SDS011;45247;47.466;19.004;2023-02-21T12:50:12;4.93;;;1.67;;
59442;SDS011;45247;47.466;19.004;2023-02-21T12:52:48;6.88;;;2.20;;
59442;SDS011;45247;47.466;19.004;2023-02-21T12:55:29;12.32;;;2.95;;
59442;SDS011;45247;47.466;19.004;2023-02-21T12:58:02;8.57;;;1.98;;
59442;SDS011;45247;47.466;19.004;2023-02-21T13:00:40;5.60;;;2.00;;
59442;SDS011;45247;47.466;19.004;2023-02-21T13:03:20;4.60;;;1.60;;
59442;SDS011;45247;47.466;19.004;2023-02-21T13:05:57;3.58;;;1.42;;
59442;SDS011;45247;47.466;19.004;2023-02-21T13:08:33;3.88;;;1.50;;
59442;SDS011;45247;47.466;19.004;2023-02-21T13:11:18;8.43;;;2.15;;
59442;SDS011;45247;47.466;19.004;2023-02-21T13:13:51;2.65;;;1.35;;
59442;SDS011;45247;47.466;19.004;2023-02-21T13:16:21;3.90;;;1.60;;
59442;SDS011;45247;47.466;19.004;2023-02-21T13:18:50;6.07;;;1.50;;
59442;SDS011;45247;47.466;19.004;2023-02-21T13:21:29;1.52;;;1.02;;
59442;SDS011;45247;47.466;19.004;2023-02-21T13:24:19;3.38;;;1.38;;
59442;SDS011;45247;47.466;19.004;2023-02-21T13:32:52;2.05;;;1.42;;
59442;SDS011;45247;47.466;19.004;2023-02-21T13:35:30;2.10;;;1.40;;
59442;SDS011;45247;47.466;19.004;2023-02-21T13:37:59;3.30;;;1.77;;
59442;SDS011;45247;47.466;19.004;2023-02-21T13:40:34;2.78;;;1.45;;
59442;SDS011;45247;47.466;19.004;2023-02-21T13:43:05;2.63;;;1.50;;
59442;SDS011;45247;47.466;19.004;2023-02-21T13:45:39;3.00;;;1.60;;
59442;SDS011;45247;47.466;19.004;2023-02-21T13:50:58;3.10;;;1.77;;
59442;SDS011;45247;47.466;19.004;2023-02-21T13:53:29;3.75;;;1.75;;
59442;SDS011;45247;47.466;19.004;2023-02-21T13:56:13;2.63;;;1.40;;
59442;SDS011;45247;47.466;19.004;2023-02-21T13:58:43;4.63;;;1.75;;
59442;SDS011;45247;47.466;19.004;2023-02-21T14:07:43;3.10;;;1.40;;
59442;SDS011;45247;47.466;19.004;2023-02-21T14:10:24;2.58;;;1.48;;
59442;SDS011;45247;47.466;19.004;2023-02-21T14:12:58;2.58;;;1.48;;
59442;SDS011;45247;47.466;19.004;2023-02-21T14:15:40;2.30;;;1.42;;
59442;SDS011;45247;47.466;19.004;2023-02-21T14:18:15;4.72;;;1.48;;
59442;SDS011;45247;47.466;19.004;2023-02-21T14:20:49;4.13;;;1.33;;
59442;SDS011;45247;47.466;19.004;2023-02-21T14:23:23;3.53;;;1.40;;
59442;SDS011;45247;47.466;19.004;2023-02-21T14:25:59;3.78;;;1.40;;
59442;SDS011;45247;47.466;19.004;2023-02-21T14:28:49;2.88;;;1.17;;
59442;SDS011;45247;47.466;19.004;2023-02-21T14:34:31;3.10;;;1.50;;
59442;SDS011;45247;47.466;19.004;2023-02-21T14:37:03;2.03;;;1.25;;
59442;SDS011;45247;47.466;19.004;2023-02-21T14:39:42;3.42;;;1.23;;
59442;SDS011;45247;47.466;19.004;2023-02-21T14:42:25;3.20;;;1.25;;
59442;SDS011;45247;47.466;19.004;2023-02-21T14:48:09;2.63;;;1.13;;
59442;SDS011;45247;47.466;19.004;2023-02-21T14:54:35;1.58;;;1.10;;
59442;SDS011;45247;47.466;19.004;2023-02-21T14:57:33;2.28;;;1.30;;
59442;SDS011;45247;47.466;19.004;2023-02-21T15:00:30;2.67;;;1.45;;
59442;SDS011;45247;47.466;19.004;2023-02-21T15:03:07;2.75;;;1.27;;
59442;SDS011;45247;47.466;19.004;2023-02-21T15:05:41;2.85;;;1.40;;
59442;SDS011;45247;47.466;19.004;2023-02-21T15:08:16;2.42;;;1.20;;
59442;SDS011;45247;47.466;19.004;2023-02-21T15:10:47;2.67;;;1.20;;
59442;SDS011;45247;47.466;19.004;2023-02-21T15:13:21;4.78;;;1.30;;
59442;SDS011;45247;47.466;19.004;2023-02-21T15:15:54;3.45;;;1.70;;
59442;SDS011;45247;47.466;19.004;2023-02-21T15:18:25;3.17;;;1.45;;
59442;SDS011;45247;47.466;19.004;2023-02-21T15:21:03;3.50;;;1.10;;
59442;SDS011;45247;47.466;19.004;2023-02-21T15:23:34;2.50;;;1.30;;
59442;SDS011;45247;47.466;19.004;2023-02-21T15:26:15;2.30;;;1.35;;
59442;SDS011;45247;47.466;19.004;2023-02-21T15:29:01;2.55;;;1.20;;
59442;SDS011;45247;47.466;19.004;2023-02-21T15:31:31;2.30;;;1.08;;
59442;SDS011;45247;47.466;19.004;2023-02-21T15:34:02;1.60;;;0.95;;
59442;SDS011;45247;47.466;19.004;2023-02-21T15:36:30;1.85;;;1.10;;
59442;SDS011;45247;47.466;19.004;2023-02-21T15:39:02;1.65;;;1.00;;
59442;SDS011;45247;47.466;19.004;2023-02-21T15:41:35;2.22;;;1.00;;
59442;SDS011;45247;47.466;19.004;2023-02-21T15:44:07;1.75;;;1.20;;
59442;SDS011;45247;47.466;19.004;2023-02-21T15:46:41;2.28;;;1.40;;
59442;SDS011;45247;47.466;19.004;2023-02-21T15:49:13;2.08;;;1.02;;
59442;SDS011;45247;47.466;19.004;2023-02-21T15:52:04;4.03;;;1.10;;
59442;SDS011;45247;47.466;19.004;2023-02-21T15:54:32;2.63;;;1.35;;